Time;durP1;ratioP1;P1;durP2;ratioP2;P2;SDS_P1;SDS_P2;PMS_P1;PMS_P2;Temp;Humidity;BMP_temperature;BMP_pressure;BME280_temperature;BME280_humidity;BME280_pressure;Samples;Min_cycle;Max_cycle;Signal;HPM_P1;HPM_P2
2022/05/22 00:00:19;;;;;;;17.88;6.45;;;9.50;99.90;;;;;;5017259;28;20140;-77
2022/05/22 00:02:46;;;;;;;15.90;6.82;;;9.50;99.90;;;;;;5016172;28;20061;-78
2022/05/22 00:05:16;;;;;;;12.18;6.57;;;9.50;99.90;;;;;;5016099;28;20060;-79
2022/05/22 00:07:43;;;;;;;13.50;6.45;;;9.50;99.90;;;;;;5034639;28;20054;-78
2022/05/22 00:10:12;;;;;;;11.70;6.45;;;9.50;99.90;;;;;;5033590;28;20119;-78
2022/05/22 00:12:40;;;;;;;11.82;6.57;;;9.40;99.90;;;;;;5034335;28;20057;-79
2022/05/22 00:15:08;;;;;;;13.88;7.03;;;9.40;99.90;;;;;;5016721;28;20073;-78
2022/05/22 00:17:35;;;;;;;15.68;6.90;;;9.40;99.90;;;;;;5033067;28;20041;-78
2022/05/22 00:20:04;;;;;;;10.35;6.20;;;9.30;99.90;;;;;;5018577;28;20057;-79
2022/05/22 00:22:31;;;;;;;13.50;6.30;;;9.30;99.90;;;;;;5018877;28;20052;-79
2022/05/22 00:24:58;;;;;;;10.73;6.47;;;9.30;99.90;;;;;;5036460;28;20095;-79
2022/05/22 00:27:26;;;;;;;11.90;6.57;;;9.20;99.90;;;;;;5017876;28;20128;-79
2022/05/22 00:29:53;;;;;;;15.85;6.70;;;9.20;99.90;;;;;;5038255;28;20053;-78
2022/05/22 00:32:21;;;;;;;11.32;6.18;;;9.20;99.90;;;;;;5020167;28;20053;-78
2022/05/22 00:34:48;;;;;;;11.77;6.22;;;9.10;99.90;;;;;;5020477;28;20053;-77
2022/05/22 00:37:15;;;;;;;13.85;7.03;;;9.10;99.90;;;;;;5016196;28;20481;-78
2022/05/22 00:39:43;;;;;;;13.38;5.97;;;9.10;99.90;;;;;;5016094;28;20053;-78
2022/05/22 00:42:16;;;;;;;10.57;6.68;;;9.10;99.90;;;;;;5033824;28;20052;-78
2022/05/22 00:44:45;;;;;;;12.30;6.00;;;9.00;99.90;;;;;;5015803;28;20489;-78
2022/05/22 00:47:13;;;;;;;12.55;6.68;;;9.00;99.90;;;;;;5016651;28;20182;-79
2022/05/22 00:49:43;;;;;;;11.85;6.75;;;9.00;99.90;;;;;;5034501;28;20449;-79
2022/05/22 00:52:15;;;;;;;12.27;6.88;;;9.00;99.90;;;;;;5016322;28;20045;-78
2022/05/22 00:54:48;;;;;;;12.50;6.55;;;8.90;99.90;;;;;;5016602;28;20067;-76
2022/05/22 00:57:19;;;;;;;14.75;7.10;;;8.90;99.90;;;;;;5033590;28;20046;-78
2022/05/22 00:59:50;;;;;;;17.45;7.38;;;9.10;99.90;;;;;;5032881;28;20084;-78
2022/05/22 01:02:18;;;;;;;14.55;8.02;;;8.90;99.90;;;;;;5033743;28;20080;-77
2022/05/22 01:04:49;;;;;;;15.50;7.18;;;8.90;99.90;;;;;;5033321;28;20049;-78
2022/05/22 01:07:16;;;;;;;16.02;7.68;;;8.90;99.90;;;;;;5015065;28;20049;-78
2022/05/22 01:09:43;;;;;;;18.85;7.57;;;8.80;99.90;;;;;;5015488;28;20049;-78
2022/05/22 01:12:16;;;;;;;15.68;6.78;;;8.80;99.90;;;;;;5033013;28;20397;-78
2022/05/22 01:14:47;;;;;;;16.73;7.28;;;8.80;99.90;;;;;;5015189;28;20111;-78
2022/05/22 01:17:16;;;;;;;14.55;7.28;;;9.30;99.90;;;;;;5014946;28;20103;-78
2022/05/22 01:19:54;;;;;;;17.30;8.18;;;8.80;99.90;;;;;;5015128;28;20092;-77
2022/05/22 01:22:23;;;;;;;19.88;7.57;;;8.70;99.90;;;;;;5015798;28;20064;-77
2022/05/22 01:24:50;;;;;;;15.13;7.53;;;8.70;99.90;;;;;;5032901;28;20464;-77
2022/05/22 01:27:18;;;;;;;18.25;7.38;;;8.70;99.90;;;;;;5032143;28;20080;-78
2022/05/22 01:29:45;;;;;;;14.88;7.00;;;8.70;99.90;;;;;;5033388;28;20053;-78
2022/05/22 01:32:12;;;;;;;14.65;7.32;;;8.70;99.90;;;;;;5033269;28;20057;-77
2022/05/22 01:34:39;;;;;;;17.15;7.28;;;8.70;99.90;;;;;;5014691;28;20092;-78
2022/05/22 01:37:07;;;;;;;10.55;7.00;;;8.70;99.90;;;;;;5033100;28;20492;-78
2022/05/22 01:39:35;;;;;;;14.80;8.15;;;8.70;99.90;;;;;;5015601;28;20555;-78
2022/05/22 01:42:01;;;;;;;17.23;7.82;;;8.70;99.90;;;;;;5032717;28;20092;-78
2022/05/22 01:44:28;;;;;;;14.88;7.05;;;8.70;99.90;;;;;;5032824;28;20493;-78
2022/05/22 01:46:55;;;;;;;12.50;6.68;;;8.60;99.90;;;;;;5032642;28;20049;-78
2022/05/22 01:49:22;;;;;;;9.65;6.43;;;8.70;99.90;;;;;;5031822;28;20089;-78
2022/05/22 01:51:49;;;;;;;13.00;5.65;;;8.60;99.90;;;;;;5014970;28;20501;-78
2022/05/22 01:54:16;;;;;;;10.13;6.35;;;8.60;99.90;;;;;;5015375;28;20061;-79
2022/05/22 01:56:44;;;;;;;13.23;6.70;;;8.60;99.90;;;;;;5015055;28;20123;-78
2022/05/22 01:59:11;;;;;;;12.80;6.57;;;8.50;99.90;;;;;;5032604;28;20504;-78
2022/05/22 02:01:37;;;;;;;12.35;6.85;;;8.50;99.90;;;;;;5032892;28;20100;-79
2022/05/22 02:04:05;;;;;;;12.07;6.13;;;8.50;99.90;;;;;;5032373;28;20054;-78
2022/05/22 02:06:31;;;;;;;10.63;6.18;;;8.50;99.90;;;;;;5032790;28;20046;-77
2022/05/22 02:08:57;;;;;;;11.85;6.40;;;8.40;99.90;;;;;;5032036;28;20460;-78
2022/05/22 02:11:24;;;;;;;13.27;6.40;;;8.40;99.90;;;;;;5015401;28;20053;-79
2022/05/22 02:13:52;;;;;;;11.00;6.55;;;8.40;99.90;;;;;;5032797;28;20049;-78
2022/05/22 02:16:19;;;;;;;17.60;6.97;;;8.40;99.90;;;;;;5031876;28;20045;-78
2022/05/22 02:18:46;;;;;;;12.70;6.82;;;8.40;99.90;;;;;;5015149;28;20088;-79
2022/05/22 02:21:13;;;;;;;11.23;6.68;;;8.30;99.90;;;;;;5015233;28;20062;-78
2022/05/22 02:23:40;;;;;;;10.73;6.47;;;8.30;99.90;;;;;;5031742;28;20493;-79
2022/05/22 02:26:11;;;;;;;15.35;7.15;;;8.30;99.90;;;;;;5015146;28;20479;-78
2022/05/22 02:28:38;;;;;;;13.93;7.65;;;8.30;99.90;;;;;;5016654;28;20053;-77
2022/05/22 02:31:08;;;;;;;11.63;6.85;;;8.30;99.90;;;;;;5034954;28;20049;-77
2022/05/22 02:33:35;;;;;;;12.30;7.03;;;8.30;99.90;;;;;;5018850;28;20053;-78
2022/05/22 02:36:03;;;;;;;14.18;7.18;;;8.20;99.90;;;;;;5018129;28;20053;-77
2022/05/22 02:38:31;;;;;;;12.60;6.40;;;8.20;99.90;;;;;;5018022;28;20063;-78
2022/05/22 02:40:58;;;;;;;13.55;7.07;;;8.50;99.90;;;;;;5018701;28;20183;-79
2022/05/22 02:43:24;;;;;;;10.10;6.47;;;8.20;99.90;;;;;;5018233;28;20497;-79
2022/05/22 02:45:51;;;;;;;10.25;6.47;;;8.20;99.90;;;;;;5017715;28;20045;-79
2022/05/22 02:48:20;;;;;;;10.52;6.43;;;8.20;99.90;;;;;;5036201;28;20053;-78
2022/05/22 02:50:46;;;;;;;11.68;6.70;;;8.20;99.90;;;;;;5018068;28;20089;-79
2022/05/22 02:53:13;;;;;;;15.02;6.50;;;8.20;99.90;;;;;;5018228;28;20058;-78
2022/05/22 02:55:43;;;;;;;13.18;7.10;;;8.20;99.90;;;;;;5018351;28;20089;-78
2022/05/22 02:58:10;;;;;;;16.35;7.00;;;8.10;99.90;;;;;;5035310;28;20456;-77
2022/05/22 03:00:37;;;;;;;15.48;6.93;;;8.10;99.90;;;;;;5018243;28;20089;-78
2022/05/22 03:03:04;;;;;;;9.95;6.28;;;8.10;99.90;;;;;;5018141;28;20045;-79
2022/05/22 03:08:14;;;;;;;18.38;7.53;;;8.10;99.90;;;;;;5034551;28;20505;-78
2022/05/22 03:10:41;;;;;;;10.90;7.43;;;8.00;99.90;;;;;;5035432;28;20556;-78
2022/05/22 03:13:08;;;;;;;12.13;6.55;;;8.00;99.90;;;;;;5034673;28;20486;-77
2022/05/22 03:15:35;;;;;;;10.88;6.65;;;8.00;99.90;;;;;;5035384;28;20100;-77
2022/05/22 03:18:01;;;;;;;10.82;6.05;;;8.40;99.90;;;;;;5017617;28;20057;-78
2022/05/22 03:20:30;;;;;;;14.23;7.53;;;8.10;99.90;;;;;;5016528;28;20049;-77
2022/05/22 03:22:59;;;;;;;11.05;6.60;;;8.10;99.90;;;;;;5017635;28;20500;-77
2022/05/22 03:25:26;;;;;;;11.10;6.88;;;8.10;99.90;;;;;;5017521;28;20085;-78
2022/05/22 03:27:53;;;;;;;11.05;6.10;;;8.00;99.90;;;;;;5034611;28;20176;-78
2022/05/22 03:30:20;;;;;;;11.35;6.82;;;9.30;99.90;;;;;;5034948;28;20492;-78
2022/05/22 03:32:46;;;;;;;10.82;6.60;;;8.00;99.90;;;;;;5034715;28;20057;-78
2022/05/22 03:35:13;;;;;;;13.13;7.50;;;8.00;99.90;;;;;;5016844;28;20095;-78
2022/05/22 03:37:40;;;;;;;10.85;7.50;;;8.00;99.90;;;;;;5035080;28;20190;-78
2022/05/22 03:40:10;;;;;;;19.38;7.82;;;8.00;99.90;;;;;;5033809;28;20046;-78
2022/05/22 03:42:37;;;;;;;14.88;6.93;;;8.00;99.90;;;;;;5034789;28;20466;-77
2022/05/22 03:45:05;;;;;;;15.20;6.97;;;8.00;99.90;;;;;;5034794;28;20099;-77
2022/05/22 03:47:31;;;;;;;12.98;7.32;;;8.00;99.90;;;;;;5033808;28;20041;-78
2022/05/22 03:50:02;;;;;;;12.45;7.05;;;8.10;99.90;;;;;;5035061;28;20057;-79
2022/05/22 03:52:29;;;;;;;15.38;8.55;;;8.10;99.90;;;;;;5034967;28;20408;-77
2022/05/22 03:54:56;;;;;;;12.50;7.07;;;8.10;99.90;;;;;;5034078;28;20054;-78
2022/05/22 03:57:24;;;;;;;12.35;7.05;;;8.10;99.90;;;;;;5017391;28;20042;-78
2022/05/22 03:59:51;;;;;;;15.95;8.10;;;8.20;99.90;;;;;;5016903;28;20053;-77
2022/05/22 04:02:18;;;;;;;13.48;6.88;;;8.20;99.90;;;;;;5033752;28;20506;-77
2022/05/22 04:04:45;;;;;;;17.45;7.00;;;8.20;99.90;;;;;;5017053;28;20155;-77
2022/05/22 04:07:13;;;;;;;12.60;6.88;;;8.20;99.90;;;;;;5016932;28;20056;-78
2022/05/22 04:09:40;;;;;;;12.80;6.63;;;8.40;99.90;;;;;;5016411;28;20057;-78
2022/05/22 04:12:08;;;;;;;12.95;7.47;;;8.40;99.90;;;;;;5034477;28;20084;-77
2022/05/22 04:14:36;;;;;;;13.95;6.95;;;8.40;99.90;;;;;;5016642;28;20053;-77
2022/05/22 04:17:03;;;;;;;17.25;7.22;;;8.50;99.90;;;;;;5016274;28;20077;-77
2022/05/22 04:19:31;;;;;;;18.70;6.72;;;8.50;99.90;;;;;;5017079;28;20049;-78
2022/05/22 04:21:58;;;;;;;16.60;6.57;;;8.60;99.90;;;;;;5034252;28;20132;-78
2022/05/22 04:27:10;;;;;;;14.82;6.60;;;8.70;99.90;;;;;;5016852;28;20512;-78
2022/05/22 04:29:39;;;;;;;13.07;6.30;;;8.70;99.90;;;;;;5033152;28;20452;-77
2022/05/22 04:32:06;;;;;;;11.48;6.47;;;8.80;99.90;;;;;;5016312;28;20077;-77
2022/05/22 04:34:33;;;;;;;13.88;6.45;;;8.90;99.90;;;;;;5033940;28;20057;-78
2022/05/22 04:37:00;;;;;;;12.30;7.00;;;8.90;99.90;;;;;;5032952;28;20088;-76
2022/05/22 04:39:27;;;;;;;13.10;7.38;;;9.00;99.90;;;;;;5034035;28;20049;-77
2022/05/22 04:41:54;;;;;;;17.25;7.57;;;9.00;99.90;;;;;;5016582;28;20141;-76
2022/05/22 04:44:20;;;;;;;12.02;6.75;;;9.10;99.90;;;;;;5015424;28;20532;-77
2022/05/22 04:46:49;;;;;;;15.00;6.80;;;9.20;99.90;;;;;;5033501;28;20084;-77
2022/05/22 04:49:15;;;;;;;14.55;6.75;;;9.20;99.90;;;;;;5016191;28;20135;-78
2022/05/22 04:51:42;;;;;;;14.95;7.28;;;9.30;99.90;;;;;;5032969;28;20481;-78
2022/05/22 04:54:10;;;;;;;13.18;6.35;;;9.60;99.90;;;;;;5016480;28;20053;-77
2022/05/22 04:56:37;;;;;;;16.80;7.10;;;9.40;99.90;;;;;;5016059;28;20053;-78
2022/05/22 04:59:04;;;;;;;12.35;7.15;;;9.50;99.90;;;;;;5015890;28;20111;-77
2022/05/22 05:01:32;;;;;;;15.60;7.35;;;9.60;99.90;;;;;;5034083;28;20061;-76
2022/05/22 05:04:00;;;;;;;13.55;6.65;;;9.70;99.90;;;;;;5015709;28;20490;-76
2022/05/22 05:06:29;;;;;;;14.13;6.65;;;9.80;99.90;;;;;;5015239;28;20057;-76
2022/05/22 05:08:56;;;;;;;11.93;6.28;;;9.90;99.90;;;;;;5033510;28;20112;-76
2022/05/22 05:11:23;;;;;;;13.32;6.05;;;10.00;99.90;;;;;;5015530;28;20135;-76
2022/05/22 05:13:50;;;;;;;16.20;6.38;;;10.10;99.90;;;;;;5032571;28;20057;-79
2022/05/22 05:16:17;;;;;;;15.40;6.25;;;10.20;99.90;;;;;;5033134;28;20552;-79
2022/05/22 05:18:43;;;;;;;18.05;6.75;;;10.30;99.90;;;;;;5015754;28;20567;-78
2022/05/22 05:21:14;;;;;;;20.60;6.05;;;10.50;99.90;;;;;;5015205;28;20445;-79
2022/05/22 05:23:41;;;;;;;18.23;6.22;;;10.60;99.90;;;;;;5015884;28;20061;-77
2022/05/22 05:26:08;;;;;;;10.18;5.47;;;10.70;99.90;;;;;;5014608;28;20496;-77
2022/05/22 05:28:35;;;;;;;15.05;6.40;;;10.90;99.90;;;;;;5015634;28;20091;-77
2022/05/22 05:31:03;;;;;;;12.10;5.60;;;11.00;99.90;;;;;;4995449;28;20088;-76
2022/05/22 05:33:32;;;;;;;15.10;6.00;;;11.30;99.90;;;;;;4995191;28;20049;-78
2022/05/22 05:35:59;;;;;;;12.13;6.03;;;11.40;99.90;;;;;;4995797;28;20053;-78
2022/05/22 05:38:27;;;;;;;13.85;6.45;;;11.70;99.90;;;;;;4996060;28;20085;-77
2022/05/22 05:40:55;;;;;;;13.70;6.88;;;11.90;99.90;;;;;;4994667;28;20855;-77
2022/05/22 05:43:22;;;;;;;10.23;6.22;;;12.00;99.90;;;;;;4995237;28;20050;-77
2022/05/22 05:45:50;;;;;;;9.43;5.97;;;12.20;99.90;;;;;;5012702;28;20096;-76
2022/05/22 05:48:17;;;;;;;14.27;7.03;;;12.40;99.90;;;;;;4995060;28;20057;-78
2022/05/22 05:50:44;;;;;;;16.13;6.88;;;12.50;99.90;;;;;;4996095;28;20057;-78
2022/05/22 05:53:11;;;;;;;15.30;7.45;;;12.70;99.90;;;;;;5013075;28;20045;-78
2022/05/22 05:55:39;;;;;;;16.25;8.00;;;12.90;99.90;;;;;;4995418;28;20058;-77
2022/05/22 05:58:06;;;;;;;15.75;7.05;;;13.00;99.90;;;;;;4995838;28;20085;-78
2022/05/22 06:00:33;;;;;;;18.35;8.27;;;13.10;99.90;;;;;;4995701;28;20085;-78
2022/05/22 06:03:00;;;;;;;19.65;8.38;;;13.20;99.90;;;;;;4995837;28;20049;-78
2022/05/22 06:05:27;;;;;;;14.07;7.40;;;13.40;99.90;;;;;;5017043;28;20382;-76
2022/05/22 06:07:54;;;;;;;13.48;7.82;;;13.60;99.90;;;;;;5016514;28;20486;-77
2022/05/22 06:10:22;;;;;;;11.05;7.03;;;13.80;99.90;;;;;;5016139;28;20085;-76
2022/05/22 06:12:50;;;;;;;20.23;7.03;;;14.00;99.90;;;;;;5017001;28;20101;-76
2022/05/22 06:15:17;;;;;;;18.92;7.85;;;14.30;99.90;;;;;;4998430;28;20078;-75
2022/05/22 06:17:47;;;;;;;20.27;7.35;;;14.50;99.90;;;;;;4999353;28;20359;-76
2022/05/22 06:20:17;;;;;;;13.95;6.90;;;14.70;99.90;;;;;;4999083;28;20056;-75
2022/05/22 06:22:45;;;;;;;17.45;6.93;;;14.90;99.90;;;;;;5015926;28;20049;-76
2022/05/22 06:25:13;;;;;;;13.63;5.93;;;15.10;99.90;;;;;;4998489;28;20050;-76
2022/05/22 06:27:41;;;;;;;16.65;6.45;;;15.20;99.90;;;;;;4998980;28;20049;-76
2022/05/22 06:30:12;;;;;;;14.80;6.43;;;15.40;99.90;;;;;;5028003;28;20413;-76
2022/05/22 06:32:40;;;;;;;15.18;6.35;;;15.50;99.90;;;;;;5018449;28;20107;-77
2022/05/22 06:35:08;;;;;;;9.35;5.15;;;15.80;99.90;;;;;;5032990;28;20512;-78
2022/05/22 06:37:35;;;;;;;15.73;6.05;;;16.00;99.90;;;;;;5006407;28;20081;-77
2022/05/22 06:40:01;;;;;;;14.48;6.20;;;16.10;99.90;;;;;;5008801;28;20413;-76
2022/05/22 06:42:31;;;;;;;15.30;5.53;;;16.40;99.90;;;;;;5028626;28;20037;-78
2022/05/22 06:45:01;;;;;;;15.07;5.35;;;16.60;99.90;;;;;;5027272;28;20085;-78
2022/05/22 06:47:31;;;;;;;10.52;4.63;;;17.00;99.90;;;;;;5011703;28;20093;-77
2022/05/22 06:49:58;;;;;;;15.02;5.88;;;17.30;99.90;;;;;;5026787;28;20103;-76
2022/05/22 06:52:26;;;;;;;13.18;5.53;;;17.70;99.90;;;;;;5012030;28;20057;-76
2022/05/22 06:54:53;;;;;;;9.57;4.45;;;18.10;99.90;;;;;;5031529;28;20089;-76
2022/05/22 06:57:22;;;;;;;11.35;4.20;;;18.20;99.90;;;;;;5011628;28;20076;-75
2022/05/22 06:59:53;;;;;;;9.18;3.30;;;18.50;99.90;;;;;;5014767;28;20494;-73
2022/05/22 07:02:20;;;;;;;11.70;3.78;;;18.90;99.90;;;;;;5028906;28;20452;-76
2022/05/22 07:04:48;;;;;;;11.38;3.80;;;19.20;99.90;;;;;;5009196;28;20505;-76
2022/05/22 07:07:15;;;;;;;8.43;3.47;;;19.40;99.90;;;;;;5007932;28;20053;-76
2022/05/22 07:09:42;;;;;;;8.30;3.88;;;19.90;99.90;;;;;;5007595;28;20046;-77
2022/05/22 07:12:12;;;;;;;9.13;3.17;;;20.10;99.90;;;;;;5013699;28;20111;-76
2022/05/22 07:14:40;;;;;;;10.45;3.90;;;20.40;99.90;;;;;;5024330;28;20050;-76
2022/05/22 07:17:08;;;;;;;9.98;3.33;;;20.60;99.90;;;;;;5007994;28;20084;-76
2022/05/22 07:19:37;;;;;;;10.95;3.28;;;20.70;99.90;;;;;;5026910;28;20559;-76
2022/05/22 07:22:06;;;;;;;11.73;3.85;;;21.20;99.90;;;;;;5026296;28;20046;-76
2022/05/22 07:24:33;;;;;;;9.40;4.40;;;21.50;99.90;;;;;;5008982;28;20053;-76
2022/05/22 07:27:00;;;;;;;10.73;4.55;;;21.80;99.90;;;;;;5027882;28;20053;-74
2022/05/22 07:29:27;;;;;;;9.52;3.53;;;22.20;99.90;;;;;;5026637;28;20158;-75
2022/05/22 07:31:56;;;;;;;8.38;3.50;;;22.20;99.90;;;;;;4990829;28;20157;-75
2022/05/22 07:34:24;;;;;;;8.00;3.55;;;22.20;99.90;;;;;;4989306;28;20066;-75
2022/05/22 07:36:55;;;;;;;7.15;2.80;;;22.40;99.90;;;;;;4992677;28;20053;-77
2022/05/22 07:39:23;;;;;;;7.13;2.60;;;22.60;98.70;;;;;;4989861;28;20090;-77
2022/05/22 07:41:50;;;;;;;7.88;2.88;;;22.60;97.60;;;;;;5008511;28;20463;-76
2022/05/22 07:44:17;;;;;;;8.93;2.55;;;22.80;97.50;;;;;;5009521;28;20046;-76
2022/05/22 07:46:44;;;;;;;9.60;3.13;;;23.10;97.00;;;;;;4988992;28;20082;-78
2022/05/22 07:50:16;;;;;;;5.85;2.80;;;23.20;96.40;;;;;;4989271;28;20092;-76
2022/05/22 07:52:03;;;;;;;9.32;2.67;;;23.40;95.40;;;;;;4990278;28;20042;-75
2022/05/22 07:54:34;;;;;;;7.40;2.40;;;23.70;93.30;;;;;;5008216;28;20049;-75
2022/05/22 07:57:01;;;;;;;9.70;2.47;;;23.70;92.50;;;;;;5006842;28;20057;-76
2022/05/22 07:59:27;;;;;;;7.20;2.35;;;23.90;92.10;;;;;;5008100;28;20045;-75
2022/05/22 08:01:54;;;;;;;7.88;3.05;;;24.10;91.50;;;;;;4990137;28;20141;-76
2022/05/22 08:04:21;;;;;;;13.63;2.97;;;23.90;90.90;;;;;;5004276;28;20050;-75
2022/05/22 08:06:48;;;;;;;7.82;2.85;;;24.00;90.80;;;;;;5009459;28;20042;-76
2022/05/22 08:09:15;;;;;;;8.65;2.85;;;24.50;90.30;;;;;;4990271;28;20081;-76
2022/05/22 08:11:43;;;;;;;5.35;2.15;;;24.60;87.50;;;;;;4989818;28;20046;-77
2022/05/22 08:14:11;;;;;;;11.60;2.58;;;24.50;86.20;;;;;;4989783;28;20108;-77
2022/05/22 08:16:38;;;;;;;5.88;2.15;;;24.60;85.80;;;;;;5007517;28;20052;-76
2022/05/22 08:19:05;;;;;;;6.97;2.28;;;24.80;84.90;;;;;;5005659;28;20109;-76
2022/05/22 08:21:32;;;;;;;7.07;2.00;;;24.30;84.90;;;;;;4993428;28;20046;-76
2022/05/22 08:23:59;;;;;;;10.77;2.00;;;24.30;84.50;;;;;;4987441;28;20107;-76
2022/05/22 08:26:27;;;;;;;5.90;2.20;;;24.20;83.30;;;;;;4983477;28;20068;-75
2022/05/22 08:28:55;;;;;;;6.82;2.20;;;24.00;82.80;;;;;;4983765;28;20090;-77
2022/05/22 08:31:22;;;;;;;4.25;1.83;;;23.90;81.70;;;;;;5005426;28;20438;-79
2022/05/22 08:33:49;;;;;;;8.02;2.00;;;24.10;82.20;;;;;;4986903;28;20093;-79
2022/05/22 08:36:17;;;;;;;7.90;2.13;;;24.70;81.50;;;;;;4991863;28;20100;-78
2022/05/22 08:38:46;;;;;;;9.05;2.40;;;25.00;80.00;;;;;;5006522;28;20145;-77
2022/05/22 08:41:19;;;;;;;7.20;1.80;;;25.30;77.00;;;;;;4994600;28;20096;-78
2022/05/22 08:43:51;;;;;;;6.50;1.60;;;25.30;78.10;;;;;;4987294;28;20100;-77
2022/05/22 08:46:27;;;;;;;5.95;2.35;;;25.80;76.30;;;;;;4994031;28;20050;-76
2022/05/22 08:48:57;;;;;;;6.78;1.95;;;25.20;75.30;;;;;;4998556;28;20054;-76
2022/05/22 08:51:31;;;;;;;6.05;1.88;;;25.20;75.10;;;;;;4994212;28;20112;-77
2022/05/22 08:54:04;;;;;;;5.57;2.03;;;25.60;74.40;;;;;;5010910;28;20053;-77
2022/05/22 08:59:24;;;;;;;6.32;2.22;;;26.00;73.70;;;;;;4994357;28;20050;-76
2022/05/22 09:01:59;;;;;;;5.78;1.90;;;26.60;72.50;;;;;;4992856;28;20104;-77
2022/05/22 09:04:32;;;;;;;7.45;2.72;;;26.80;71.30;;;;;;5005074;28;20089;-76
2022/05/22 09:07:15;;;;;;;4.82;1.65;;;26.60;71.30;;;;;;4991782;28;20520;-77
2022/05/22 09:09:44;;;;;;;5.80;1.95;;;27.20;68.60;;;;;;4996194;28;20081;-76
2022/05/22 09:12:38;;;;;;;4.97;1.73;;;27.30;71.10;;;;;;4992159;28;20132;-77
2022/05/22 09:15:10;;;;;;;6.45;2.10;;;27.50;66.90;;;;;;4940190;28;20125;-78
2022/05/22 09:17:44;;;;;;;4.15;1.48;;;27.40;68.20;;;;;;4991408;28;20062;-78
2022/05/22 09:20:17;;;;;;;9.07;1.90;;;27.10;67.40;;;;;;4984547;28;20085;-77
2022/05/22 09:22:56;;;;;;;6.25;1.63;;;26.60;66.90;;;;;;4992902;28;20153;-76
2022/05/22 09:25:33;;;;;;;4.05;1.63;;;26.30;68.10;;;;;;4997363;28;20403;-77
2022/05/22 09:28:08;;;;;;;7.53;2.10;;;25.40;69.10;;;;;;4992679;28;20100;-77
2022/05/22 09:30:40;;;;;;;7.35;1.92;;;24.50;70.00;;;;;;4988204;28;20093;-77
2022/05/22 09:33:18;;;;;;;5.20;1.85;;;24.00;71.20;;;;;;4991636;28;20058;-76
2022/05/22 09:35:57;;;;;;;5.70;1.95;;;23.90;71.20;;;;;;5011644;28;20054;-77
2022/05/22 09:38:46;;;;;;;3.65;1.50;;;24.40;70.20;;;;;;4996005;28;20053;-75
2022/05/22 09:41:22;;;;;;;5.20;1.70;;;25.20;68.50;;;;;;4991744;28;20092;-77
2022/05/22 09:44:15;;;;;;;6.47;1.73;;;25.80;68.80;;;;;;4991599;28;20124;-77
2022/05/22 09:46:58;;;;;;;6.63;1.70;;;26.40;68.40;;;;;;5003377;28;20061;-77
2022/05/22 09:49:42;;;;;;;4.70;1.50;;;26.90;67.30;;;;;;5010407;28;20128;-77
2022/05/22 09:52:15;;;;;;;5.78;1.98;;;27.20;65.10;;;;;;5007572;28;20064;-76
2022/05/22 09:54:59;;;;;;;5.45;1.45;;;27.50;66.90;;;;;;4994806;28;20054;-79
2022/05/22 09:57:38;;;;;;;4.93;1.55;;;27.70;64.30;;;;;;4991486;28;20050;-79
2022/05/22 10:00:09;;;;;;;8.57;1.83;;;27.00;65.20;;;;;;4991431;28;20120;-78
2022/05/22 10:02:45;;;;;;;13.38;2.03;;;26.50;66.20;;;;;;4990808;28;20298;-79
2022/05/22 10:05:34;;;;;;;5.93;1.58;;;26.10;66.10;;;;;;4990356;28;20105;-81
2022/05/22 10:08:10;;;;;;;5.72;1.48;;;26.50;65.40;;;;;;4992048;28;20054;-80
2022/05/22 10:10:45;;;;;;;6.20;1.67;;;26.60;64.90;;;;;;5004144;28;20128;-80
2022/05/22 10:13:22;;;;;;;5.93;1.95;;;26.50;64.90;;;;;;5003390;28;20093;-81
2022/05/22 10:16:01;;;;;;;7.20;1.70;;;26.80;64.60;;;;;;5007610;28;20089;-81
2022/05/22 10:18:45;;;;;;;6.30;1.80;;;27.10;64.40;;;;;;5005284;28;20085;-79
2022/05/22 10:21:19;;;;;;;9.27;1.98;;;27.10;63.00;;;;;;5003064;28;20092;-81
2022/05/22 10:23:58;;;;;;;7.68;2.08;;;26.50;62.30;;;;;;4999409;28;20046;-80
2022/05/22 10:26:36;;;;;;;5.50;1.20;;;26.00;63.60;;;;;;4992175;28;20105;-81
2022/05/22 10:29:13;;;;;;;6.13;1.92;;;25.70;64.40;;;;;;4998208;28;20086;-81
2022/05/22 10:31:47;;;;;;;3.08;1.38;;;26.00;63.90;;;;;;4996655;28;20050;-82
2022/05/22 10:34:27;;;;;;;6.18;2.28;;;26.40;63.60;;;;;;4992572;28;20100;-80
2022/05/22 10:36:59;;;;;;;6.57;1.95;;;26.60;62.50;;;;;;4997455;28;20097;-81
2022/05/22 10:39:26;;;;;;;4.95;1.70;;;26.80;62.90;;;;;;5008164;28;20100;-79
2022/05/22 10:44:46;;;;;;;6.22;1.63;;;27.20;63.00;;;;;;5002484;28;20129;-82
2022/05/22 10:47:13;;;;;;;6.03;1.65;;;27.40;62.80;;;;;;5017434;28;20054;-81
2022/05/22 10:49:44;;;;;;;4.15;1.40;;;27.60;62.60;;;;;;5007208;28;20093;-80
2022/05/22 10:52:14;;;;;;;3.50;1.50;;;27.40;62.30;;;;;;5015537;28;20058;-80
2022/05/22 10:54:47;;;;;;;5.88;1.90;;;27.60;61.20;;;;;;5019771;28;20076;-80
2022/05/22 10:57:17;;;;;;;5.05;1.65;;;27.70;59.80;;;;;;4993778;28;20133;-79
2022/05/22 10:59:47;;;;;;;5.53;1.40;;;27.50;60.90;;;;;;4995027;28;20046;-81
2022/05/22 11:02:21;;;;;;;4.95;1.77;;;27.30;61.00;;;;;;5009786;28;20057;-82
2022/05/22 11:04:50;;;;;;;6.60;1.48;;;27.00;61.70;;;;;;5009664;28;20058;-82
2022/05/22 11:07:29;;;;;;;3.75;1.58;;;27.20;61.70;;;;;;4995397;28;20046;-82
2022/05/22 11:09:57;;;;;;;3.80;1.27;;;27.80;61.10;;;;;;4998910;28;20058;-82
2022/05/22 11:12:26;;;;;;;5.68;1.45;;;27.70;60.50;;;;;;4995268;28;20112;-79
2022/05/22 11:15:05;;;;;;;4.73;1.30;;;27.00;61.30;;;;;;5011017;28;20057;-78
2022/05/22 11:17:32;;;;;;;3.85;1.38;;;26.70;60.50;;;;;;5003708;28;20116;-79
2022/05/22 11:20:07;;;;;;;5.10;1.67;;;26.30;61.00;;;;;;5012766;28;20302;-80
2022/05/22 11:22:40;;;;;;;5.38;1.67;;;26.20;61.10;;;;;;4999426;28;20054;-76
2022/05/22 11:25:28;;;;;;;5.20;1.38;;;26.10;61.40;;;;;;5006817;28;20208;-83
2022/05/22 11:28:11;;;;;;;6.97;1.50;;;26.00;61.60;;;;;;5005962;28;20050;-79
2022/05/22 11:30:47;;;;;;;5.82;1.80;;;26.10;62.70;;;;;;5009736;28;20108;-81
2022/05/22 11:33:33;;;;;;;5.95;1.83;;;25.80;64.40;;;;;;5005013;28;20050;-81
2022/05/22 11:36:10;;;;;;;5.57;1.55;;;25.40;64.50;;;;;;4996067;28;20057;-82
2022/05/22 11:38:55;;;;;;;5.00;1.80;;;25.00;64.40;;;;;;5023446;28;20076;-81
2022/05/22 11:41:28;;;;;;;3.75;1.00;;;25.20;64.60;;;;;;4999217;28;20108;-77
2022/05/22 11:44:25;;;;;;;3.60;1.42;;;25.10;64.00;;;;;;5000857;28;20136;-79
2022/05/22 11:47:16;;;;;;;3.92;1.48;;;24.90;63.90;;;;;;4997182;28;20085;-78
2022/05/22 11:49:53;;;;;;;3.95;1.20;;;24.60;65.60;;;;;;5022320;28;20091;-80
2022/05/22 11:55:26;;;;;;;3.25;1.35;;;24.40;64.60;;;;;;5027010;28;20613;-81
2022/05/22 11:58:07;;;;;;;4.97;1.38;;;24.20;65.40;;;;;;5014684;28;20053;-80
2022/05/22 12:00:40;;;;;;;3.28;1.33;;;24.10;65.30;;;;;;5007800;28;20552;-80
2022/05/22 12:03:37;;;;;;;3.72;1.35;;;24.20;65.60;;;;;;5003301;28;20494;-82
2022/05/22 12:06:11;;;;;;;6.30;1.67;;;24.70;65.90;;;;;;5009007;28;20057;-80
2022/05/22 12:08:57;;;;;;;6.10;1.85;;;24.70;64.80;;;;;;5022208;28;20091;-80
2022/05/22 12:11:44;;;;;;;6.07;1.30;;;24.50;65.10;;;;;;5015713;28;20100;-79
2022/05/22 12:14:23;;;;;;;4.45;1.60;;;24.30;65.50;;;;;;5010107;28;20111;-79
2022/05/22 12:16:57;;;;;;;3.10;1.27;;;24.30;64.70;;;;;;4995017;28;20081;-79
2022/05/22 12:19:33;;;;;;;4.38;1.30;;;24.00;65.10;;;;;;5013323;28;20054;-80
2022/05/22 12:22:15;;;;;;;3.92;1.10;;;24.20;64.70;;;;;;4995299;28;20081;-77
2022/05/22 12:24:50;;;;;;;4.18;1.40;;;24.70;64.40;;;;;;5007839;28;20096;-78
2022/05/22 12:27:24;;;;;;;3.70;1.38;;;25.00;64.60;;;;;;5010088;28;20457;-78
2022/05/22 12:30:07;;;;;;;3.30;1.30;;;25.60;63.60;;;;;;5030415;28;20053;-78
2022/05/22 12:32:40;;;;;;;4.85;1.40;;;26.10;62.50;;;;;;5013741;28;20049;-79
2022/05/22 12:35:08;;;;;;;5.25;1.58;;;26.60;62.40;;;;;;5015309;28;20418;-78
2022/05/22 12:37:40;;;;;;;3.63;1.48;;;26.50;62.40;;;;;;5014866;28;21774;-79
2022/05/22 12:40:17;;;;;;;4.72;1.35;;;26.20;62.40;;;;;;5027114;28;20054;-77
2022/05/22 12:42:53;;;;;;;4.13;1.23;;;26.10;61.60;;;;;;4997281;28;20137;-80
2022/05/22 12:45:21;;;;;;;3.22;1.38;;;26.30;62.20;;;;;;5012547;28;20045;-81
2022/05/22 12:47:51;;;;;;;3.97;1.40;;;26.50;61.80;;;;;;5032993;28;20055;-82
2022/05/22 12:50:33;;;;;;;3.97;1.73;;;26.60;61.30;;;;;;5014685;28;20050;-80
2022/05/22 12:53:00;;;;;;;4.68;1.10;;;27.10;62.10;;;;;;5035754;28;20103;-82
2022/05/22 12:55:32;;;;;;;4.70;1.58;;;27.50;61.90;;;;;;5010925;28;20050;-80
2022/05/22 12:58:02;;;;;;;4.72;1.10;;;27.30;60.70;;;;;;4995651;28;20062;-81
2022/05/22 13:00:37;;;;;;;5.47;2.13;;;27.30;61.00;;;;;;5010188;28;20108;-80
2022/05/22 13:03:11;;;;;;;5.65;1.20;;;27.00;61.50;;;;;;5014192;28;20140;-82
2022/05/22 13:05:38;;;;;;;3.05;1.10;;;26.70;62.90;;;;;;5011474;28;20139;-82
2022/05/22 13:08:19;;;;;;;4.70;1.50;;;26.10;62.60;;;;;;5012747;28;20053;-81
2022/05/22 13:10:51;;;;;;;4.43;1.40;;;25.60;62.70;;;;;;5013304;28;20357;-83
2022/05/22 13:13:27;;;;;;;4.20;1.83;;;25.60;63.00;;;;;;5014532;28;20053;-82
2022/05/22 13:16:03;;;;;;;4.85;1.38;;;25.40;62.80;;;;;;5013791;28;20137;-82